createdAt,value
2019-05-18T00:02:05.656Z,71.64
2019-05-18T00:04:34.158Z,71.65
2019-05-18T00:07:02.733Z,71.83
2019-05-18T00:09:31.332Z,72.00
2019-05-18T00:11:59.976Z,72.55
2019-05-18T00:14:28.422Z,72.50
2019-05-18T00:16:56.798Z,72.06
2019-05-18T00:19:25.262Z,71.73
2019-05-18T00:21:53.723Z,71.84
2019-05-18T00:24:22.097Z,72.35
2019-05-18T00:26:50.398Z,72.18
2019-05-18T00:29:18.883Z,72.12
2019-05-18T00:31:47.338Z,72.27
2019-05-18T00:34:15.735Z,72.18
2019-05-18T00:36:44.170Z,72.29
2019-05-18T00:39:12.494Z,72.75
2019-05-18T00:41:40.814Z,72.86
2019-05-18T00:44:09.207Z,72.91
2019-05-18T00:46:37.592Z,72.91
2019-05-18T00:49:06.161Z,72.84
2019-05-18T00:51:34.540Z,72.70
2019-05-18T00:54:02.917Z,72.98
2019-05-18T00:56:31.228Z,73.03
2019-05-18T00:58:59.725Z,73.06
2019-05-18T01:01:28.029Z,73.12
2019-05-18T01:03:56.344Z,72.99
2019-05-18T01:06:24.717Z,72.79
2019-05-18T01:08:53.157Z,72.72
2019-05-18T01:11:21.533Z,73.04
2019-05-18T01:13:50.062Z,73.22
2019-05-18T01:16:18.452Z,72.99
2019-05-18T01:18:46.819Z,72.88
2019-05-18T01:21:15.217Z,73.02
2019-05-18T01:23:43.505Z,73.25
2019-05-18T01:26:11.985Z,73.57
2019-05-18T01:28:40.430Z,73.42
2019-05-18T01:31:08.748Z,73.33
2019-05-18T01:33:37.184Z,73.32
2019-05-18T01:36:05.523Z,73.41
2019-05-18T01:38:33.888Z,73.44
2019-05-18T01:41:02.358Z,73.04
2019-05-18T01:43:30.698Z,72.92
2019-05-18T01:45:59.036Z,72.76
2019-05-18T01:48:27.326Z,72.66
2019-05-18T01:50:55.809Z,72.91
2019-05-18T01:53:24.284Z,73.16
2019-05-18T01:55:52.921Z,73.12
2019-05-18T01:58:21.284Z,73.15
2019-05-18T02:00:49.610Z,73.27
2019-05-18T02:03:17.915Z,73.13
2019-05-18T02:05:46.315Z,72.92
2019-05-18T02:08:14.677Z,72.96
2019-05-18T02:10:43.323Z,73.17
2019-05-18T02:13:11.790Z,73.42
2019-05-18T02:15:40.238Z,73.08
2019-05-18T02:18:08.581Z,72.88
2019-05-18T02:20:36.904Z,72.97
2019-05-18T02:23:05.238Z,73.15
2019-05-18T02:25:33.608Z,72.78
2019-05-18T02:28:02.628Z,72.91
2019-05-18T02:30:30.998Z,72.77
2019-05-18T02:32:59.456Z,72.61
2019-05-18T02:35:28.138Z,72.92
2019-05-18T02:37:58.161Z,72.86
2019-05-18T02:40:26.538Z,73.07
2019-05-18T02:42:54.948Z,73.08
2019-05-18T02:45:23.244Z,73.28
2019-05-18T02:47:51.788Z,73.51
2019-05-18T02:50:20.276Z,73.90
2019-05-18T02:52:48.608Z,74.16
2019-05-18T02:55:17.140Z,74.30
2019-05-18T02:57:45.548Z,74.13
2019-05-18T03:00:14.743Z,74.24
2019-05-18T03:02:43.147Z,73.94
2019-05-18T03:05:11.547Z,73.82
2019-05-18T03:07:39.931Z,73.57
2019-05-18T03:10:08.821Z,74.14
2019-05-18T03:12:37.337Z,74.19
2019-05-18T03:15:07.238Z,74.08
2019-05-18T03:17:35.659Z,73.58
2019-05-18T03:20:05.536Z,73.70
2019-05-18T03:22:33.820Z,73.64
2019-05-18T03:25:02.252Z,74.03
2019-05-18T03:27:30.813Z,74.11
2019-05-18T03:29:59.232Z,74.41
2019-05-18T03:32:27.965Z,74.37
2019-05-18T03:34:56.507Z,74.30
2019-05-18T03:37:24.813Z,74.15
2019-05-18T03:39:53.415Z,74.27
2019-05-18T03:42:21.747Z,74.46
2019-05-18T03:44:50.112Z,74.25
2019-05-18T03:47:18.420Z,73.93
2019-05-18T03:49:46.814Z,73.60
2019-05-18T03:52:15.367Z,73.57
2019-05-18T03:54:43.765Z,73.90
2019-05-18T03:57:12.296Z,74.26
2019-05-18T03:59:43.870Z,74.15
2019-05-18T04:02:12.192Z,74.09
2019-05-18T04:04:40.588Z,74.22
2019-05-18T04:07:08.954Z,74.26
2019-05-18T04:09:37.462Z,74.32
2019-05-18T04:12:05.818Z,74.10
2019-05-18T04:14:34.316Z,73.83
2019-05-18T04:17:02.696Z,74.04
2019-05-18T04:19:45.460Z,74.21
2019-05-18T04:22:01.143Z,74.25
2019-05-18T04:24:29.453Z,74.05
2019-05-18T04:26:57.874Z,73.91
2019-05-18T04:29:26.164Z,73.99
2019-05-18T04:31:54.517Z,74.09
2019-05-18T04:34:22.832Z,74.15
2019-05-18T04:36:51.451Z,74.25
2019-05-18T04:39:19.819Z,74.47
2019-05-18T04:41:48.121Z,74.27
2019-05-18T04:44:16.484Z,74.09
2019-05-18T04:46:44.949Z,74.18
2019-05-18T04:49:13.380Z,74.41
2019-05-18T04:51:41.711Z,74.49
2019-05-18T04:54:10.076Z,74.57
2019-05-18T04:56:42.152Z,74.48
2019-05-18T04:59:08.654Z,74.34
2019-05-18T05:01:36.961Z,74.23
2019-05-18T05:04:05.599Z,74.14
2019-05-18T05:06:33.941Z,74.27
2019-05-18T05:09:02.249Z,74.34
2019-05-18T05:11:30.593Z,74.30
2019-05-18T05:13:58.976Z,74.33
2019-05-18T05:16:27.404Z,74.15
2019-05-18T05:18:55.708Z,73.84
2019-05-18T05:21:25.068Z,73.43
2019-05-18T05:23:53.370Z,73.34
2019-05-18T05:26:21.856Z,73.08
2019-05-18T05:28:50.578Z,72.84
2019-05-18T05:31:19.022Z,72.58
2019-05-18T05:33:47.605Z,72.42
2019-05-18T05:36:15.998Z,71.89
2019-05-18T05:38:44.403Z,71.62
2019-05-18T05:41:16.643Z,71.36
2019-05-18T05:43:44.982Z,71.29
2019-05-18T05:46:13.281Z,70.99
2019-05-18T05:48:41.799Z,70.47
2019-05-18T05:51:10.668Z,70.32
2019-05-18T05:53:39.008Z,70.54
2019-05-18T05:56:07.384Z,70.38
2019-05-18T05:58:35.957Z,69.83
2019-05-18T06:01:04.260Z,68.97
2019-05-18T06:03:32.896Z,68.44
2019-05-18T06:06:01.226Z,67.73
2019-05-18T06:08:29.573Z,67.46
2019-05-18T06:10:57.925Z,67.39
2019-05-18T06:13:26.438Z,66.45
2019-05-18T06:15:55.078Z,65.46
2019-05-18T06:18:23.583Z,65.52
2019-05-18T06:20:52.254Z,64.66
2019-05-18T06:23:20.701Z,64.18
2019-05-18T06:25:49.098Z,64.13
2019-05-18T06:28:17.480Z,63.41
2019-05-18T06:30:45.824Z,63.46
2019-05-18T06:33:14.530Z,64.05
2019-05-18T06:35:42.839Z,63.08
2019-05-18T06:38:14.003Z,62.18
2019-05-18T06:40:42.341Z,62.30
2019-05-18T06:43:10.925Z,62.63
2019-05-18T06:45:39.317Z,62.50
2019-05-18T06:48:07.695Z,61.90
2019-05-18T06:50:36.099Z,61.54
2019-05-18T06:53:04.543Z,61.59
2019-05-18T06:55:33.082Z,60.59
2019-05-18T06:58:02.117Z,60.15
2019-05-18T07:00:30.499Z,60.54
2019-05-18T07:02:58.845Z,60.04
2019-05-18T07:05:27.315Z,59.52
2019-05-18T07:07:55.779Z,58.98
2019-05-18T07:10:24.210Z,58.74
2019-05-18T07:12:52.805Z,59.86
2019-05-18T07:15:21.255Z,59.98
2019-05-18T07:17:49.597Z,59.96
2019-05-18T07:20:19.099Z,60.56
2019-05-18T07:22:47.426Z,60.45
2019-05-18T07:25:15.907Z,60.47
2019-05-18T07:27:44.447Z,60.18
2019-05-18T07:30:13.193Z,60.48
2019-05-18T07:32:41.576Z,60.61
2019-05-18T07:35:10.240Z,59.56
2019-05-18T07:37:38.594Z,59.02
2019-05-18T07:40:08.910Z,59.56
2019-05-18T07:42:37.330Z,60.45
2019-05-18T07:45:09.212Z,60.26
2019-05-18T07:47:37.568Z,60.42
2019-05-18T07:50:07.500Z,60.05
2019-05-18T07:52:35.995Z,60.35
2019-05-18T07:55:05.910Z,60.24
2019-05-18T07:57:34.263Z,59.42
2019-05-18T08:00:02.779Z,58.76
2019-05-18T08:02:31.174Z,58.29
2019-05-18T08:04:59.640Z,57.54
2019-05-18T08:07:28.082Z,54.66
2019-05-18T08:09:56.528Z,55.73
2019-05-18T08:12:24.954Z,57.01
2019-05-18T08:14:59.433Z,57.21
2019-05-18T08:17:29.442Z,55.04
2019-05-18T08:19:57.830Z,56.95
2019-05-18T08:22:26.158Z,55.98
2019-05-18T08:24:54.655Z,56.33
2019-05-18T08:27:24.625Z,56.49
2019-05-18T08:29:52.953Z,56.17
2019-05-18T08:32:21.767Z,55.36
2019-05-18T08:34:50.217Z,54.99
2019-05-18T08:37:18.758Z,54.46
2019-05-18T08:39:47.213Z,54.42
2019-05-18T08:42:15.696Z,54.48
2019-05-18T08:44:44.101Z,52.52
2019-05-18T08:47:12.395Z,54.27
2019-05-18T08:49:41.299Z,53.99
2019-05-18T08:52:09.699Z,53.19
2019-05-18T08:54:38.069Z,51.72
2019-05-18T08:57:06.387Z,52.68
2019-05-18T08:59:35.009Z,53.95
2019-05-18T09:02:05.209Z,53.70
2019-05-18T09:04:34.655Z,52.75
2019-05-18T09:07:02.975Z,52.85
2019-05-18T09:09:32.179Z,52.65
2019-05-18T09:12:00.617Z,52.03
2019-05-18T09:14:28.996Z,51.97
2019-05-18T09:16:57.548Z,50.85
2019-05-18T09:19:25.976Z,50.73
2019-05-18T09:21:55.189Z,50.45
2019-05-18T09:24:23.581Z,50.72
2019-05-18T09:26:52.271Z,50.68
2019-05-18T09:29:20.751Z,50.27
2019-05-18T09:31:49.407Z,49.38
2019-05-18T09:34:17.750Z,49.23
2019-05-18T09:36:46.204Z,49.02
2019-05-18T09:39:14.539Z,47.89
2019-05-18T09:41:43.228Z,47.15
2019-05-18T09:44:11.712Z,47.53
2019-05-18T09:46:40.426Z,46.79
2019-05-18T09:49:08.870Z,46.83
2019-05-18T09:51:37.223Z,47.10
2019-05-18T09:54:05.611Z,47.21
2019-05-18T09:56:33.948Z,47.51
2019-05-18T09:59:02.415Z,48.09
2019-05-18T10:01:30.887Z,48.08
2019-05-18T10:03:59.185Z,47.14
2019-05-18T10:06:31.445Z,46.83
2019-05-18T10:08:59.510Z,47.31
2019-05-18T10:11:28.192Z,47.48
2019-05-18T10:13:56.683Z,46.64
2019-05-18T10:16:25.451Z,47.09
2019-05-18T10:18:53.851Z,46.65
2019-05-18T10:21:23.430Z,45.96
2019-05-18T10:23:52.017Z,44.81
2019-05-18T10:26:20.589Z,44.84
2019-05-18T10:28:51.336Z,44.90
2019-05-18T10:31:19.750Z,44.83
2019-05-18T10:33:48.315Z,44.59
2019-05-18T10:36:16.701Z,43.55
2019-05-18T10:38:45.203Z,42.23
2019-05-18T10:41:13.673Z,42.53
2019-05-18T10:43:46.870Z,42.49
2019-05-18T10:46:14.957Z,42.22
2019-05-18T10:48:43.474Z,41.39
2019-05-18T10:51:11.846Z,42.65
2019-05-18T10:53:40.335Z,43.30
2019-05-18T10:56:09.263Z,42.30
2019-05-18T10:58:37.783Z,41.69
2019-05-18T11:01:06.270Z,43.40
2019-05-18T11:03:34.669Z,43.65
2019-05-18T11:06:03.500Z,42.75
2019-05-18T11:08:32.223Z,41.89
2019-05-18T11:11:00.591Z,41.45
2019-05-18T11:13:29.146Z,40.77
2019-05-18T11:15:57.437Z,40.58
2019-05-18T11:18:26.046Z,41.90
2019-05-18T11:20:54.426Z,41.69
2019-05-18T11:23:23.556Z,41.72
2019-05-18T11:25:52.110Z,40.61
2019-05-18T11:28:21.138Z,40.41
2019-05-18T11:30:50.175Z,39.71
2019-05-18T11:33:20.055Z,40.74
2019-05-18T11:35:48.954Z,41.42
2019-05-18T11:38:18.937Z,41.01
2019-05-18T11:40:47.778Z,40.40
2019-05-18T11:43:16.917Z,40.48
2019-05-18T11:45:46.152Z,40.69
2019-05-18T11:48:15.439Z,39.56
2019-05-18T11:50:44.501Z,38.93
2019-05-18T11:53:13.760Z,38.89
2019-05-18T11:55:42.556Z,39.11
2019-05-18T11:58:10.925Z,38.31
2019-05-18T12:00:40.353Z,38.01
2019-05-18T12:03:09.730Z,37.43
2019-05-18T12:05:38.094Z,37.24
2019-05-18T12:08:06.801Z,36.77
2019-05-18T12:10:35.723Z,37.46
2019-05-18T12:13:05.223Z,37.65
2019-05-18T12:15:34.525Z,37.75
2019-05-18T12:18:04.169Z,36.69
2019-05-18T12:20:33.365Z,36.04
2019-05-18T12:23:02.141Z,36.15
2019-05-18T12:25:30.634Z,35.70
2019-05-18T12:27:59.033Z,34.70
2019-05-18T12:30:28.234Z,35.78
2019-05-18T12:32:56.642Z,35.82
2019-05-18T12:35:25.014Z,35.92
2019-05-18T12:37:54.248Z,36.57
2019-05-18T12:40:23.132Z,36.07
2019-05-18T12:42:51.626Z,35.64
2019-05-18T12:45:20.239Z,36.44
2019-05-18T12:47:48.784Z,37.02
2019-05-18T12:50:22.285Z,36.79
2019-05-18T12:52:50.882Z,36.12
2019-05-18T12:55:20.272Z,34.83
2019-05-18T12:57:48.751Z,34.56
2019-05-18T13:00:19.094Z,35.68
2019-05-18T13:02:47.491Z,36.13
2019-05-18T13:05:15.982Z,35.91
2019-05-18T13:07:44.417Z,36.62
2019-05-18T13:10:14.385Z,36.04
2019-05-18T13:12:42.859Z,35.46
2019-05-18T13:15:12.195Z,35.01
2019-05-18T13:17:40.585Z,35.99
2019-05-18T13:20:11.759Z,34.82
2019-05-18T13:22:40.358Z,36.66
2019-05-18T13:25:09.546Z,37.58
2019-05-18T13:27:39.761Z,39.53
2019-05-18T13:30:13.010Z,41.11
2019-05-18T13:32:41.512Z,43.21
2019-05-18T13:35:12.024Z,45.84
2019-05-18T13:37:40.512Z,48.51
2019-05-18T13:40:09.554Z,51.37
2019-05-18T13:42:37.855Z,54.29
2019-05-18T13:45:07.298Z,58.05
2019-05-18T13:47:35.720Z,60.09
2019-05-18T13:50:04.903Z,61.53
2019-05-18T13:52:33.756Z,62.47
2019-05-18T13:55:04.764Z,63.13
2019-05-18T13:57:32.257Z,63.40
2019-05-18T14:00:06.323Z,64.03
2019-05-18T14:02:34.854Z,64.17
2019-05-18T14:05:03.551Z,64.21
2019-05-18T14:07:32.267Z,65.04
2019-05-18T14:10:04.747Z,67.26
2019-05-18T14:12:33.337Z,66.63
2019-05-18T14:15:02.178Z,67.57
2019-05-18T14:17:32.245Z,65.10
2019-05-18T14:20:00.754Z,64.37
2019-05-18T14:22:29.457Z,63.56
2019-05-18T14:24:59.550Z,63.61
2019-05-18T14:27:30.360Z,63.27
2019-05-18T14:29:58.781Z,63.10
2019-05-18T14:32:27.797Z,63.88
2019-05-18T14:34:58.053Z,62.65
2019-05-18T14:37:27.017Z,62.64
2019-05-18T14:39:57.825Z,63.44
2019-05-18T14:42:29.208Z,63.46
2019-05-18T14:44:57.686Z,65.25
2019-05-18T14:47:28.264Z,66.32
2019-05-18T14:49:56.771Z,66.48
2019-05-18T14:52:25.676Z,67.34
2019-05-18T14:54:54.462Z,65.91
2019-05-18T14:57:25.681Z,64.69
2019-05-18T14:59:53.174Z,66.36
2019-05-18T15:02:21.528Z,67.56
2019-05-18T15:04:53.104Z,68.09
2019-05-18T15:07:20.934Z,68.62
2019-05-18T15:09:49.376Z,68.79
2019-05-18T15:12:18.361Z,69.43
2019-05-18T15:14:47.539Z,70.86
2019-05-18T15:17:15.935Z,68.76
2019-05-18T15:19:44.435Z,68.57
2019-05-18T15:22:13.085Z,68.08
2019-05-18T15:24:42.260Z,67.48
2019-05-18T15:27:10.630Z,67.84
2019-05-18T15:29:39.002Z,67.26
2019-05-18T15:32:07.432Z,66.23
2019-05-18T15:34:35.796Z,65.07
2019-05-18T15:37:04.408Z,65.49
2019-05-18T15:39:32.790Z,65.42
2019-05-18T15:42:01.147Z,67.07
2019-05-18T15:44:29.564Z,68.68
2019-05-18T15:46:58.072Z,68.26
2019-05-18T15:49:26.428Z,66.90
2019-05-18T15:51:54.926Z,66.92
2019-05-18T15:54:23.291Z,66.79
2019-05-18T15:56:51.829Z,66.25
2019-05-18T15:59:20.357Z,66.44
2019-05-18T16:01:48.770Z,65.95
2019-05-18T16:04:17.156Z,63.89
2019-05-18T16:06:45.581Z,63.89
2019-05-18T16:09:13.894Z,63.91
2019-05-18T16:11:42.379Z,63.05
2019-05-18T16:14:10.740Z,62.39
2019-05-18T16:16:39.630Z,61.04
2019-05-18T16:19:09.666Z,62.27
2019-05-18T16:21:38.222Z,64.50
2019-05-18T16:24:06.745Z,64.10
2019-05-18T16:26:36.807Z,63.14
2019-05-18T16:29:05.257Z,62.83
2019-05-18T16:31:33.745Z,62.93
2019-05-18T16:34:02.217Z,64.14
2019-05-18T16:36:30.665Z,65.43
2019-05-18T16:38:59.040Z,66.60
2019-05-18T16:41:27.475Z,64.10
2019-05-18T16:43:55.850Z,63.65
2019-05-18T16:46:24.293Z,64.35
2019-05-18T16:48:52.639Z,65.38
2019-05-18T16:51:21.135Z,65.25
2019-05-18T16:53:50.517Z,66.04
2019-05-18T16:56:18.924Z,66.08
2019-05-18T16:58:47.762Z,64.96
2019-05-18T17:01:16.063Z,64.71
2019-05-18T17:03:44.478Z,64.32
2019-05-18T17:06:16.172Z,64.97
2019-05-18T17:08:43.015Z,64.86
2019-05-18T17:11:11.747Z,65.53
2019-05-18T17:13:41.648Z,65.59
2019-05-18T17:16:10.062Z,65.92
2019-05-18T17:18:38.568Z,65.89
2019-05-18T17:21:07.022Z,65.19
2019-05-18T17:23:35.654Z,65.86
2019-05-18T17:26:05.526Z,66.24
2019-05-18T17:28:33.893Z,65.73
2019-05-18T17:31:02.286Z,65.50
2019-05-18T17:33:30.672Z,66.24
2019-05-18T17:36:00.534Z,65.71
2019-05-18T17:38:29.867Z,65.23
2019-05-18T17:40:58.249Z,65.17
2019-05-18T17:43:26.569Z,64.93
2019-05-18T17:45:54.959Z,64.96
2019-05-18T17:48:23.454Z,64.05
2019-05-18T17:50:51.834Z,65.05
2019-05-18T17:53:21.365Z,65.53
2019-05-18T17:55:50.121Z,65.26
2019-05-18T17:58:18.682Z,65.21
2019-05-18T18:00:47.082Z,64.79
2019-05-18T18:03:15.402Z,65.17
2019-05-18T18:05:43.744Z,65.61
2019-05-18T18:09:04.303Z,65.73
2019-05-18T18:11:32.645Z,66.29
2019-05-18T18:14:01.120Z,66.42
2019-05-18T18:16:29.542Z,65.93
2019-05-18T18:18:57.978Z,65.30
2019-05-18T18:21:26.401Z,65.19
2019-05-18T18:23:55.364Z,65.53
2019-05-18T18:26:24.085Z,66.11
2019-05-18T18:28:52.414Z,66.72
2019-05-18T18:31:20.844Z,67.38
2019-05-18T18:33:49.226Z,67.85
2019-05-18T18:36:17.761Z,68.16
2019-05-18T18:38:46.292Z,69.99
2019-05-18T18:41:16.235Z,69.56
2019-05-18T18:43:44.714Z,69.57
2019-05-18T18:46:13.298Z,69.81
2019-05-18T18:48:41.760Z,69.08
2019-05-18T18:51:10.183Z,68.95
2019-05-18T18:53:38.501Z,70.13
2019-05-18T18:56:06.839Z,69.68
2019-05-18T18:58:35.728Z,69.76
2019-05-18T19:01:04.140Z,69.73
2019-05-18T19:03:32.527Z,69.19
2019-05-18T19:06:00.957Z,69.15
2019-05-18T19:08:29.333Z,70.17
2019-05-18T19:10:57.748Z,71.11
2019-05-18T19:13:26.551Z,70.81
2019-05-18T19:15:55.038Z,71.05
2019-05-18T19:18:23.445Z,70.85
2019-05-18T19:20:51.800Z,70.67
2019-05-18T19:23:20.122Z,70.45
2019-05-18T19:25:48.492Z,70.13
2019-05-18T19:28:16.863Z,70.05
2019-05-18T19:30:45.163Z,70.24
2019-05-18T19:33:13.512Z,70.25
2019-05-18T19:35:41.969Z,70.38
2019-05-18T19:38:10.375Z,69.98
2019-05-18T19:40:38.797Z,70.00
2019-05-18T19:43:07.450Z,70.04
2019-05-18T19:45:35.891Z,70.41
2019-05-18T19:48:04.353Z,69.85
2019-05-18T19:50:33.009Z,69.94
2019-05-18T19:53:01.712Z,69.71
2019-05-18T19:55:30.109Z,69.27
2019-05-18T19:58:08.445Z,69.06
2019-05-18T20:00:28.836Z,68.97
2019-05-18T20:02:57.233Z,69.09
2019-05-18T20:05:25.591Z,68.64
2019-05-18T20:07:54.290Z,68.56
2019-05-18T20:10:22.971Z,68.50
2019-05-18T20:12:51.297Z,68.42
2019-05-18T20:15:19.715Z,68.50
2019-05-18T20:17:48.025Z,68.54
2019-05-18T20:20:16.898Z,68.53
2019-05-18T20:22:45.331Z,68.34
2019-05-18T20:25:15.367Z,68.38
2019-05-18T20:27:43.660Z,69.10
2019-05-18T20:30:12.452Z,69.29
2019-05-18T20:32:40.820Z,68.52
2019-05-18T20:35:09.344Z,69.06
2019-05-18T20:37:37.819Z,69.50
2019-05-18T20:40:06.699Z,69.88
2019-05-18T20:42:37.555Z,70.16
2019-05-18T20:45:06.063Z,69.68
2019-05-18T20:47:34.462Z,69.60
2019-05-18T20:50:03.411Z,69.87
2019-05-18T20:52:31.695Z,70.31
2019-05-18T20:55:00.150Z,70.61
2019-05-18T20:57:28.599Z,70.70
2019-05-18T20:59:56.971Z,70.52
2019-05-18T21:02:25.412Z,70.43
2019-05-18T21:04:53.813Z,70.75
2019-05-18T21:07:22.160Z,70.67
2019-05-18T21:09:50.663Z,70.60
2019-05-18T21:12:19.113Z,70.00
2019-05-18T21:14:47.526Z,70.10
2019-05-18T21:17:15.877Z,69.99
2019-05-18T21:19:44.271Z,69.17
2019-05-18T21:22:12.798Z,68.99
2019-05-18T21:24:41.353Z,69.38
2019-05-18T21:27:09.750Z,69.90
2019-05-18T21:29:38.063Z,69.29
2019-05-18T21:32:06.425Z,69.02
2019-05-18T21:34:34.709Z,68.93
2019-05-18T21:37:03.385Z,68.82
2019-05-18T21:39:31.834Z,69.66
2019-05-18T21:42:00.247Z,69.46
2019-05-18T21:44:29.197Z,69.68
2019-05-18T21:46:57.748Z,70.39
2019-05-18T21:49:26.953Z,70.31
2019-05-18T21:51:56.126Z,71.11
2019-05-18T21:54:25.034Z,71.46
2019-05-18T21:56:54.284Z,71.60
2019-05-18T21:59:23.137Z,71.46
2019-05-18T22:03:01.206Z,71.28
2019-05-18T22:06:03.655Z,71.04
2019-05-18T22:09:02.964Z,71.22
2019-05-18T22:12:02.093Z,71.12
2019-05-18T22:33:02.466Z,71.34
2019-05-18T22:36:01.773Z,71.30
2019-05-18T22:39:05.565Z,71.36
2019-05-18T22:42:04.264Z,71.11
2019-05-18T22:45:03.932Z,71.36
2019-05-18T22:48:03.094Z,71.52
2019-05-18T23:05:01.321Z,71.82
2019-05-18T23:08:03.400Z,71.92
2019-05-18T23:11:02.675Z,72.42
2019-05-18T23:14:01.940Z,72.25
2019-05-18T23:17:04.292Z,72.18
2019-05-18T23:20:03.689Z,72.03
2019-05-18T23:23:03.091Z,71.97
2019-05-18T23:26:02.347Z,72.51
2019-05-18T23:29:04.615Z,72.67
2019-05-18T23:32:03.592Z,72.75
2019-05-18T23:35:02.694Z,72.53
2019-05-18T23:38:01.845Z,72.68
2019-05-18T23:41:04.040Z,72.88
2019-05-18T23:44:03.658Z,72.45
2019-05-18T23:47:02.543Z,71.57
2019-05-18T23:50:05.687Z,71.82
2019-05-18T23:53:04.737Z,71.89
2019-05-18T23:56:04.134Z,71.98
2019-05-18T23:58:32.903Z,72.42
